sensor_id;sensor_type;location;lat;lon;timestamp;P1;durP1;ratioP1;P2;durP2;ratioP2
8895;SDS011;4484;48.928;10.066;2022-07-23T00:00:20;6.30;;;5.07;;
8895;SDS011;4484;48.928;10.066;2022-07-23T00:02:47;5.37;;;4.83;;
8895;SDS011;4484;48.928;10.066;2022-07-23T00:05:14;5.00;;;4.47;;
8895;SDS011;4484;48.928;10.066;2022-07-23T00:07:41;6.33;;;4.80;;
8895;SDS011;4484;48.928;10.066;2022-07-23T00:10:08;5.07;;;4.63;;
8895;SDS011;4484;48.928;10.066;2022-07-23T00:12:35;5.07;;;4.57;;
8895;SDS011;4484;48.928;10.066;2022-07-23T00:15:15;5.00;;;4.33;;
8895;SDS011;4484;48.928;10.066;2022-07-23T00:17:42;4.80;;;3.57;;
8895;SDS011;4484;48.928;10.066;2022-07-23T00:20:09;4.90;;;3.60;;
8895;SDS011;4484;48.928;10.066;2022-07-23T00:22:36;6.70;;;4.30;;
8895;SDS011;4484;48.928;10.066;2022-07-23T00:25:11;6.67;;;4.20;;
8895;SDS011;4484;48.928;10.066;2022-07-23T00:27:54;4.93;;;4.40;;
8895;SDS011;4484;48.928;10.066;2022-07-23T00:30:21;5.13;;;4.63;;
8895;SDS011;4484;48.928;10.066;2022-07-23T00:32:48;5.90;;;4.50;;
8895;SDS011;4484;48.928;10.066;2022-07-23T00:35:22;4.83;;;4.07;;
8895;SDS011;4484;48.928;10.066;2022-07-23T00:37:52;4.03;;;3.60;;
8895;SDS011;4484;48.928;10.066;2022-07-23T00:40:20;4.63;;;4.23;;
8895;SDS011;4484;48.928;10.066;2022-07-23T00:42:47;6.63;;;4.40;;
8895;SDS011;4484;48.928;10.066;2022-07-23T00:45:14;4.37;;;3.97;;
8895;SDS011;4484;48.928;10.066;2022-07-23T00:47:41;6.77;;;3.63;;
8895;SDS011;4484;48.928;10.066;2022-07-23T00:50:09;4.27;;;3.63;;
8895;SDS011;4484;48.928;10.066;2022-07-23T00:52:37;4.70;;;3.77;;
8895;SDS011;4484;48.928;10.066;2022-07-23T00:55:05;4.00;;;3.60;;
8895;SDS011;4484;48.928;10.066;2022-07-23T00:57:33;4.63;;;3.87;;
8895;SDS011;4484;48.928;10.066;2022-07-23T01:00:00;4.07;;;3.67;;
8895;SDS011;4484;48.928;10.066;2022-07-23T01:02:27;4.80;;;3.87;;
8895;SDS011;4484;48.928;10.066;2022-07-23T01:04:54;4.40;;;3.77;;
8895;SDS011;4484;48.928;10.066;2022-07-23T01:07:21;4.90;;;3.93;;
8895;SDS011;4484;48.928;10.066;2022-07-23T01:09:50;5.57;;;3.67;;
8895;SDS011;4484;48.928;10.066;2022-07-23T01:12:18;3.87;;;3.50;;
8895;SDS011;4484;48.928;10.066;2022-07-23T01:14:45;3.33;;;3.03;;
8895;SDS011;4484;48.928;10.066;2022-07-23T01:17:12;3.77;;;3.47;;
8895;SDS011;4484;48.928;10.066;2022-07-23T01:19:38;6.57;;;3.40;;
8895;SDS011;4484;48.928;10.066;2022-07-23T01:22:06;3.47;;;3.13;;
8895;SDS011;4484;48.928;10.066;2022-07-23T01:24:33;5.40;;;3.40;;
8895;SDS011;4484;48.928;10.066;2022-07-23T01:27:05;3.97;;;3.20;;
8895;SDS011;4484;48.928;10.066;2022-07-23T01:29:34;4.83;;;3.10;;
8895;SDS011;4484;48.928;10.066;2022-07-23T01:32:06;7.57;;;3.30;;
8895;SDS011;4484;48.928;10.066;2022-07-23T01:34:34;6.03;;;3.17;;
8895;SDS011;4484;48.928;10.066;2022-07-23T01:37:01;5.00;;;3.37;;
8895;SDS011;4484;48.928;10.066;2022-07-23T01:39:28;3.80;;;3.03;;
8895;SDS011;4484;48.928;10.066;2022-07-23T01:41:55;3.77;;;3.37;;
8895;SDS011;4484;48.928;10.066;2022-07-23T01:44:23;4.87;;;3.73;;
8895;SDS011;4484;48.928;10.066;2022-07-23T01:46:50;3.97;;;3.07;;
8895;SDS011;4484;48.928;10.066;2022-07-23T01:49:19;3.37;;;3.07;;
8895;SDS011;4484;48.928;10.066;2022-07-23T01:51:52;5.07;;;3.07;;
8895;SDS011;4484;48.928;10.066;2022-07-23T01:54:32;4.83;;;3.07;;
8895;SDS011;4484;48.928;10.066;2022-07-23T01:57:01;4.57;;;3.17;;
8895;SDS011;4484;48.928;10.066;2022-07-23T01:59:28;6.50;;;3.17;;
8895;SDS011;4484;48.928;10.066;2022-07-23T02:01:55;3.50;;;3.20;;
8895;SDS011;4484;48.928;10.066;2022-07-23T02:04:24;4.20;;;3.30;;
8895;SDS011;4484;48.928;10.066;2022-07-23T02:06:52;3.50;;;3.20;;
8895;SDS011;4484;48.928;10.066;2022-07-23T02:09:19;7.10;;;3.33;;
8895;SDS011;4484;48.928;10.066;2022-07-23T02:11:47;3.63;;;3.33;;
8895;SDS011;4484;48.928;10.066;2022-07-23T02:14:14;3.60;;;3.30;;
8895;SDS011;4484;48.928;10.066;2022-07-23T02:16:41;3.50;;;3.20;;
8895;SDS011;4484;48.928;10.066;2022-07-23T02:19:08;3.87;;;3.10;;
8895;SDS011;4484;48.928;10.066;2022-07-23T02:21:35;5.13;;;3.20;;
8895;SDS011;4484;48.928;10.066;2022-07-23T02:24:03;3.80;;;3.10;;
8895;SDS011;4484;48.928;10.066;2022-07-23T02:26:30;5.87;;;3.17;;
8895;SDS011;4484;48.928;10.066;2022-07-23T02:29:04;3.83;;;3.13;;
8895;SDS011;4484;48.928;10.066;2022-07-23T02:31:32;4.50;;;3.10;;
8895;SDS011;4484;48.928;10.066;2022-07-23T02:34:01;3.13;;;2.87;;
8895;SDS011;4484;48.928;10.066;2022-07-23T02:36:29;2.93;;;2.70;;
8895;SDS011;4484;48.928;10.066;2022-07-23T02:38:57;3.63;;;3.20;;
8895;SDS011;4484;48.928;10.066;2022-07-23T02:41:27;3.43;;;3.13;;
8895;SDS011;4484;48.928;10.066;2022-07-23T02:43:55;4.27;;;3.17;;
8895;SDS011;4484;48.928;10.066;2022-07-23T02:46:22;3.47;;;3.17;;
8895;SDS011;4484;48.928;10.066;2022-07-23T02:48:49;3.10;;;2.80;;
8895;SDS011;4484;48.928;10.066;2022-07-23T02:51:16;4.43;;;2.87;;
8895;SDS011;4484;48.928;10.066;2022-07-23T02:53:50;3.77;;;3.00;;
8895;SDS011;4484;48.928;10.066;2022-07-23T02:56:17;3.07;;;2.57;;
8895;SDS011;4484;48.928;10.066;2022-07-23T02:58:45;6.17;;;3.17;;
8895;SDS011;4484;48.928;10.066;2022-07-23T03:01:12;3.57;;;2.90;;
8895;SDS011;4484;48.928;10.066;2022-07-23T03:03:39;4.63;;;2.83;;
8895;SDS011;4484;48.928;10.066;2022-07-23T03:06:06;3.00;;;2.70;;
8895;SDS011;4484;48.928;10.066;2022-07-23T03:08:34;3.40;;;2.97;;
8895;SDS011;4484;48.928;10.066;2022-07-23T03:11:00;5.13;;;2.77;;
8895;SDS011;4484;48.928;10.066;2022-07-23T03:13:28;3.17;;;2.87;;
8895;SDS011;4484;48.928;10.066;2022-07-23T03:15:57;3.93;;;2.70;;
8895;SDS011;4484;48.928;10.066;2022-07-23T03:18:24;4.87;;;3.37;;
8895;SDS011;4484;48.928;10.066;2022-07-23T03:20:51;4.93;;;3.33;;
8895;SDS011;4484;48.928;10.066;2022-07-23T03:23:17;3.23;;;2.80;;
8895;SDS011;4484;48.928;10.066;2022-07-23T03:25:46;4.07;;;3.20;;
8895;SDS011;4484;48.928;10.066;2022-07-23T03:28:20;4.50;;;3.27;;
8895;SDS011;4484;48.928;10.066;2022-07-23T03:30:47;4.23;;;3.03;;
8895;SDS011;4484;48.928;10.066;2022-07-23T03:33:16;5.10;;;3.33;;
8895;SDS011;4484;48.928;10.066;2022-07-23T03:35:45;5.07;;;3.40;;
8895;SDS011;4484;48.928;10.066;2022-07-23T03:38:21;3.47;;;3.17;;
8895;SDS011;4484;48.928;10.066;2022-07-23T03:40:49;4.40;;;3.27;;
8895;SDS011;4484;48.928;10.066;2022-07-23T03:43:16;3.67;;;3.13;;
8895;SDS011;4484;48.928;10.066;2022-07-23T03:45:44;5.77;;;3.20;;
8895;SDS011;4484;48.928;10.066;2022-07-23T03:48:11;6.97;;;3.23;;
8895;SDS011;4484;48.928;10.066;2022-07-23T03:50:39;4.37;;;3.33;;
8895;SDS011;4484;48.928;10.066;2022-07-23T03:53:06;5.87;;;2.83;;
8895;SDS011;4484;48.928;10.066;2022-07-23T03:55:33;3.40;;;3.10;;
8895;SDS011;4484;48.928;10.066;2022-07-23T03:58:00;3.57;;;3.27;;
8895;SDS011;4484;48.928;10.066;2022-07-23T04:00:27;3.83;;;3.30;;
8895;SDS011;4484;48.928;10.066;2022-07-23T04:02:54;6.67;;;3.37;;
8895;SDS011;4484;48.928;10.066;2022-07-23T04:05:21;4.70;;;3.37;;
8895;SDS011;4484;48.928;10.066;2022-07-23T04:07:53;3.73;;;3.10;;
8895;SDS011;4484;48.928;10.066;2022-07-23T04:10:20;7.10;;;3.63;;
8895;SDS011;4484;48.928;10.066;2022-07-23T04:12:47;4.40;;;2.93;;
8895;SDS011;4484;48.928;10.066;2022-07-23T04:15:14;3.70;;;3.30;;
8895;SDS011;4484;48.928;10.066;2022-07-23T04:17:41;6.30;;;3.60;;
8895;SDS011;4484;48.928;10.066;2022-07-23T04:20:10;3.97;;;3.00;;
8895;SDS011;4484;48.928;10.066;2022-07-23T04:22:45;3.73;;;2.90;;
8895;SDS011;4484;48.928;10.066;2022-07-23T04:25:11;3.43;;;2.93;;
8895;SDS011;4484;48.928;10.066;2022-07-23T04:27:39;3.80;;;3.27;;
8895;SDS011;4484;48.928;10.066;2022-07-23T04:30:07;3.47;;;3.17;;
8895;SDS011;4484;48.928;10.066;2022-07-23T04:32:34;4.43;;;3.67;;
8895;SDS011;4484;48.928;10.066;2022-07-23T04:35:04;4.03;;;3.40;;
8895;SDS011;4484;48.928;10.066;2022-07-23T04:37:31;4.27;;;3.30;;
8895;SDS011;4484;48.928;10.066;2022-07-23T04:39:58;3.87;;;3.50;;
8895;SDS011;4484;48.928;10.066;2022-07-23T04:42:25;3.60;;;3.10;;
8895;SDS011;4484;48.928;10.066;2022-07-23T04:44:52;4.50;;;3.40;;
8895;SDS011;4484;48.928;10.066;2022-07-23T04:47:20;5.00;;;3.57;;
8895;SDS011;4484;48.928;10.066;2022-07-23T04:49:48;4.03;;;3.40;;
8895;SDS011;4484;48.928;10.066;2022-07-23T04:52:16;4.57;;;3.30;;
8895;SDS011;4484;48.928;10.066;2022-07-23T04:54:43;4.93;;;3.50;;
8895;SDS011;4484;48.928;10.066;2022-07-23T04:57:13;5.67;;;3.93;;
8895;SDS011;4484;48.928;10.066;2022-07-23T04:59:40;3.77;;;3.43;;
8895;SDS011;4484;48.928;10.066;2022-07-23T05:02:08;3.67;;;3.30;;
8895;SDS011;4484;48.928;10.066;2022-07-23T05:04:35;4.23;;;3.23;;
8895;SDS011;4484;48.928;10.066;2022-07-23T05:07:02;4.83;;;3.50;;
8895;SDS011;4484;48.928;10.066;2022-07-23T05:09:30;4.07;;;3.00;;
8895;SDS011;4484;48.928;10.066;2022-07-23T05:11:58;5.50;;;3.70;;
8895;SDS011;4484;48.928;10.066;2022-07-23T05:14:25;5.13;;;3.80;;
8895;SDS011;4484;48.928;10.066;2022-07-23T05:16:52;6.53;;;4.43;;
8895;SDS011;4484;48.928;10.066;2022-07-23T05:19:21;8.93;;;4.80;;
8895;SDS011;4484;48.928;10.066;2022-07-23T05:21:51;12.53;;;6.23;;
8895;SDS011;4484;48.928;10.066;2022-07-23T05:24:17;7.50;;;5.17;;
8895;SDS011;4484;48.928;10.066;2022-07-23T05:26:44;6.37;;;4.10;;
8895;SDS011;4484;48.928;10.066;2022-07-23T05:29:12;7.03;;;3.47;;
8895;SDS011;4484;48.928;10.066;2022-07-23T05:31:39;6.97;;;3.90;;
8895;SDS011;4484;48.928;10.066;2022-07-23T05:34:06;4.10;;;3.67;;
8895;SDS011;4484;48.928;10.066;2022-07-23T05:36:34;6.43;;;3.23;;
8895;SDS011;4484;48.928;10.066;2022-07-23T05:39:02;5.80;;;3.80;;
8895;SDS011;4484;48.928;10.066;2022-07-23T05:41:33;4.03;;;3.50;;
8895;SDS011;4484;48.928;10.066;2022-07-23T05:44:02;4.03;;;3.37;;
8895;SDS011;4484;48.928;10.066;2022-07-23T05:46:30;4.57;;;3.33;;
8895;SDS011;4484;48.928;10.066;2022-07-23T05:49:02;5.00;;;3.80;;
8895;SDS011;4484;48.928;10.066;2022-07-23T05:52:05;6.83;;;4.10;;
8895;SDS011;4484;48.928;10.066;2022-07-23T05:54:51;7.27;;;4.47;;
8895;SDS011;4484;48.928;10.066;2022-07-23T05:57:18;11.03;;;5.20;;
8895;SDS011;4484;48.928;10.066;2022-07-23T05:59:50;7.73;;;4.17;;
8895;SDS011;4484;48.928;10.066;2022-07-23T06:02:17;5.33;;;3.97;;
8895;SDS011;4484;48.928;10.066;2022-07-23T06:04:44;3.77;;;3.20;;
8895;SDS011;4484;48.928;10.066;2022-07-23T06:07:32;3.83;;;3.40;;
8895;SDS011;4484;48.928;10.066;2022-07-23T06:09:59;4.40;;;3.70;;
8895;SDS011;4484;48.928;10.066;2022-07-23T06:12:26;3.90;;;3.47;;
8895;SDS011;4484;48.928;10.066;2022-07-23T06:14:54;4.30;;;3.70;;
8895;SDS011;4484;48.928;10.066;2022-07-23T06:17:20;4.90;;;3.77;;
8895;SDS011;4484;48.928;10.066;2022-07-23T06:19:48;4.00;;;3.60;;
8895;SDS011;4484;48.928;10.066;2022-07-23T06:22:17;4.47;;;3.33;;
8895;SDS011;4484;48.928;10.066;2022-07-23T06:24:45;3.93;;;3.40;;
8895;SDS011;4484;48.928;10.066;2022-07-23T06:27:11;3.80;;;3.20;;
8895;SDS011;4484;48.928;10.066;2022-07-23T06:29:38;4.73;;;3.63;;
8895;SDS011;4484;48.928;10.066;2022-07-23T06:32:07;5.63;;;3.23;;
8895;SDS011;4484;48.928;10.066;2022-07-23T06:34:34;4.23;;;3.50;;
8895;SDS011;4484;48.928;10.066;2022-07-23T06:37:01;5.27;;;3.80;;
8895;SDS011;4484;48.928;10.066;2022-07-23T06:39:28;5.60;;;3.23;;
8895;SDS011;4484;48.928;10.066;2022-07-23T06:41:56;5.60;;;3.63;;
8895;SDS011;4484;48.928;10.066;2022-07-23T06:44:36;4.40;;;3.77;;
8895;SDS011;4484;48.928;10.066;2022-07-23T06:47:06;4.30;;;3.57;;
8895;SDS011;4484;48.928;10.066;2022-07-23T06:49:33;3.93;;;3.57;;
8895;SDS011;4484;48.928;10.066;2022-07-23T06:52:00;4.70;;;3.80;;
8895;SDS011;4484;48.928;10.066;2022-07-23T06:54:26;3.50;;;3.20;;
8895;SDS011;4484;48.928;10.066;2022-07-23T06:56:53;6.50;;;3.53;;
8895;SDS011;4484;48.928;10.066;2022-07-23T06:59:20;4.32;;;3.85;;
8895;SDS011;4484;48.928;10.066;2022-07-23T07:01:47;5.05;;;3.80;;
8895;SDS011;4484;48.928;10.066;2022-07-23T07:04:14;3.93;;;3.63;;
8895;SDS011;4484;48.928;10.066;2022-07-23T07:06:42;4.30;;;3.70;;
8895;SDS011;4484;48.928;10.066;2022-07-23T07:09:08;4.37;;;3.60;;
8895;SDS011;4484;48.928;10.066;2022-07-23T07:11:35;3.93;;;3.50;;
8895;SDS011;4484;48.928;10.066;2022-07-23T07:14:03;5.70;;;3.50;;
8895;SDS011;4484;48.928;10.066;2022-07-23T07:16:30;7.03;;;4.00;;
8895;SDS011;4484;48.928;10.066;2022-07-23T07:18:58;4.13;;;3.70;;
8895;SDS011;4484;48.928;10.066;2022-07-23T07:21:26;5.40;;;3.80;;
8895;SDS011;4484;48.928;10.066;2022-07-23T07:23:52;4.50;;;3.50;;
8895;SDS011;4484;48.928;10.066;2022-07-23T07:26:20;3.70;;;3.33;;
8895;SDS011;4484;48.928;10.066;2022-07-23T07:28:47;6.47;;;3.45;;
8895;SDS011;4484;48.928;10.066;2022-07-23T07:31:14;5.28;;;3.50;;
8895;SDS011;4484;48.928;10.066;2022-07-23T07:33:41;4.07;;;3.67;;
8895;SDS011;4484;48.928;10.066;2022-07-23T07:36:08;3.70;;;3.40;;
8895;SDS011;4484;48.928;10.066;2022-07-23T07:38:35;4.75;;;3.80;;
8895;SDS011;4484;48.928;10.066;2022-07-23T07:41:02;3.42;;;3.13;;
8895;SDS011;4484;48.928;10.066;2022-07-23T07:43:29;4.60;;;3.60;;
8895;SDS011;4484;48.928;10.066;2022-07-23T07:45:56;5.65;;;3.83;;
8895;SDS011;4484;48.928;10.066;2022-07-23T07:48:24;4.28;;;3.88;;
8895;SDS011;4484;48.928;10.066;2022-07-23T07:50:56;8.02;;;3.90;;
8895;SDS011;4484;48.928;10.066;2022-07-23T07:53:27;8.27;;;3.85;;
8895;SDS011;4484;48.928;10.066;2022-07-23T07:58:46;4.10;;;3.45;;
8895;SDS011;4484;48.928;10.066;2022-07-23T08:01:13;3.80;;;3.50;;
8895;SDS011;4484;48.928;10.066;2022-07-23T08:03:41;6.05;;;3.55;;
8895;SDS011;4484;48.928;10.066;2022-07-23T08:06:08;6.07;;;3.75;;
8895;SDS011;4484;48.928;10.066;2022-07-23T08:08:41;4.38;;;3.97;;
8895;SDS011;4484;48.928;10.066;2022-07-23T08:11:07;5.20;;;3.80;;
8895;SDS011;4484;48.928;10.066;2022-07-23T08:13:35;4.72;;;3.85;;
8895;SDS011;4484;48.928;10.066;2022-07-23T08:16:02;3.47;;;3.22;;
8895;SDS011;4484;48.928;10.066;2022-07-23T08:18:34;4.43;;;4.00;;
8895;SDS011;4484;48.928;10.066;2022-07-23T08:21:02;4.22;;;3.83;;
8895;SDS011;4484;48.928;10.066;2022-07-23T08:23:32;4.03;;;3.55;;
8895;SDS011;4484;48.928;10.066;2022-07-23T08:25:59;10.32;;;4.38;;
8895;SDS011;4484;48.928;10.066;2022-07-23T08:28:27;5.15;;;3.65;;
8895;SDS011;4484;48.928;10.066;2022-07-23T08:30:54;6.40;;;4.60;;
8895;SDS011;4484;48.928;10.066;2022-07-23T08:33:21;4.68;;;3.83;;
8895;SDS011;4484;48.928;10.066;2022-07-23T08:36:00;4.60;;;4.20;;
8895;SDS011;4484;48.928;10.066;2022-07-23T08:38:29;5.03;;;4.00;;
8895;SDS011;4484;48.928;10.066;2022-07-23T08:40:57;5.47;;;4.20;;
8895;SDS011;4484;48.928;10.066;2022-07-23T08:43:25;5.90;;;3.70;;
8895;SDS011;4484;48.928;10.066;2022-07-23T08:45:57;4.50;;;4.00;;
8895;SDS011;4484;48.928;10.066;2022-07-23T08:48:30;4.00;;;3.60;;
8895;SDS011;4484;48.928;10.066;2022-07-23T08:51:05;5.45;;;3.58;;
8895;SDS011;4484;48.928;10.066;2022-07-23T08:53:33;5.03;;;3.75;;
8895;SDS011;4484;48.928;10.066;2022-07-23T08:56:06;5.00;;;3.08;;
8895;SDS011;4484;48.928;10.066;2022-07-23T08:58:35;3.53;;;3.22;;
8895;SDS011;4484;48.928;10.066;2022-07-23T09:01:02;4.43;;;4.03;;
8895;SDS011;4484;48.928;10.066;2022-07-23T09:03:31;4.63;;;4.22;;
8895;SDS011;4484;48.928;10.066;2022-07-23T09:06:00;6.35;;;4.13;;
8895;SDS011;4484;48.928;10.066;2022-07-23T09:11:05;4.50;;;3.53;;
8895;SDS011;4484;48.928;10.066;2022-07-23T09:13:52;4.65;;;3.75;;
8895;SDS011;4484;48.928;10.066;2022-07-23T09:16:24;3.72;;;3.10;;
8895;SDS011;4484;48.928;10.066;2022-07-23T09:18:54;4.68;;;3.90;;
8895;SDS011;4484;48.928;10.066;2022-07-23T09:23:56;3.53;;;3.20;;
8895;SDS011;4484;48.928;10.066;2022-07-23T09:26:38;4.68;;;3.50;;
8895;SDS011;4484;48.928;10.066;2022-07-23T09:29:21;3.60;;;3.30;;
8895;SDS011;4484;48.928;10.066;2022-07-23T09:31:49;4.18;;;3.17;;
8895;SDS011;4484;48.928;10.066;2022-07-23T09:34:31;3.72;;;3.30;;
8895;SDS011;4484;48.928;10.066;2022-07-23T09:39:43;3.30;;;2.88;;
8895;SDS011;4484;48.928;10.066;2022-07-23T09:42:25;3.75;;;3.30;;
8895;SDS011;4484;48.928;10.066;2022-07-23T09:44:53;3.50;;;3.20;;
8895;SDS011;4484;48.928;10.066;2022-07-23T09:47:25;3.17;;;2.85;;
8895;SDS011;4484;48.928;10.066;2022-07-23T09:49:58;3.38;;;2.55;;
8895;SDS011;4484;48.928;10.066;2022-07-23T09:52:42;3.35;;;3.05;;
8895;SDS011;4484;48.928;10.066;2022-07-23T09:55:10;3.33;;;3.03;;
8895;SDS011;4484;48.928;10.066;2022-07-23T09:57:43;3.15;;;2.85;;
8895;SDS011;4484;48.928;10.066;2022-07-23T10:00:12;3.65;;;2.80;;
8895;SDS011;4484;48.928;10.066;2022-07-23T10:02:39;3.38;;;3.08;;
8895;SDS011;4484;48.928;10.066;2022-07-23T10:05:27;3.20;;;2.97;;
8895;SDS011;4484;48.928;10.066;2022-07-23T10:08:15;3.90;;;3.15;;
8895;SDS011;4484;48.928;10.066;2022-07-23T10:11:02;4.05;;;3.65;;
8895;SDS011;4484;48.928;10.066;2022-07-23T10:13:36;3.72;;;3.42;;
8895;SDS011;4484;48.928;10.066;2022-07-23T10:16:13;4.55;;;3.65;;
8895;SDS011;4484;48.928;10.066;2022-07-23T10:18:52;4.25;;;3.83;;
8895;SDS011;4484;48.928;10.066;2022-07-23T10:21:27;4.00;;;3.67;;
8895;SDS011;4484;48.928;10.066;2022-07-23T10:30:04;3.90;;;3.33;;
8895;SDS011;4484;48.928;10.066;2022-07-23T10:41:33;5.40;;;3.72;;
8895;SDS011;4484;48.928;10.066;2022-07-23T10:44:18;3.55;;;3.25;;
8895;SDS011;4484;48.928;10.066;2022-07-23T10:49:36;4.95;;;3.67;;
8895;SDS011;4484;48.928;10.066;2022-07-23T10:54:55;4.18;;;3.78;;
8895;SDS011;4484;48.928;10.066;2022-07-23T10:57:24;4.28;;;3.88;;
8895;SDS011;4484;48.928;10.066;2022-07-23T11:02:37;3.88;;;3.58;;
8895;SDS011;4484;48.928;10.066;2022-07-23T11:05:06;3.72;;;3.38;;
8895;SDS011;4484;48.928;10.066;2022-07-23T11:08:10;4.22;;;3.38;;
8895;SDS011;4484;48.928;10.066;2022-07-23T11:24:09;3.67;;;3.22;;
8895;SDS011;4484;48.928;10.066;2022-07-23T11:31:52;5.55;;;4.10;;
8895;SDS011;4484;48.928;10.066;2022-07-23T11:34:38;4.15;;;3.60;;
8895;SDS011;4484;48.928;10.066;2022-07-23T11:37:11;3.97;;;3.60;;
8895;SDS011;4484;48.928;10.066;2022-07-23T11:39:39;4.32;;;4.03;;
8895;SDS011;4484;48.928;10.066;2022-07-23T11:42:06;4.10;;;3.67;;
8895;SDS011;4484;48.928;10.066;2022-07-23T11:44:37;4.18;;;3.78;;
8895;SDS011;4484;48.928;10.066;2022-07-23T11:47:06;3.70;;;3.40;;
8895;SDS011;4484;48.928;10.066;2022-07-23T11:49:38;4.03;;;3.72;;
8895;SDS011;4484;48.928;10.066;2022-07-23T11:52:06;4.28;;;3.88;;
8895;SDS011;4484;48.928;10.066;2022-07-23T11:54:33;4.97;;;4.30;;
8895;SDS011;4484;48.928;10.066;2022-07-23T11:57:12;3.97;;;3.58;;
8895;SDS011;4484;48.928;10.066;2022-07-23T11:59:39;4.28;;;3.88;;
8895;SDS011;4484;48.928;10.066;2022-07-23T12:02:09;5.03;;;3.75;;
8895;SDS011;4484;48.928;10.066;2022-07-23T12:10:12;4.00;;;3.60;;
8895;SDS011;4484;48.928;10.066;2022-07-23T12:12:43;4.32;;;3.90;;
8895;SDS011;4484;48.928;10.066;2022-07-23T12:15:14;3.58;;;3.15;;
8895;SDS011;4484;48.928;10.066;2022-07-23T12:17:43;3.78;;;3.40;;
8895;SDS011;4484;48.928;10.066;2022-07-23T12:20:18;3.78;;;3.47;;
8895;SDS011;4484;48.928;10.066;2022-07-23T12:22:47;4.00;;;3.60;;
8895;SDS011;4484;48.928;10.066;2022-07-23T12:25:17;3.78;;;3.40;;
8895;SDS011;4484;48.928;10.066;2022-07-23T12:27:57;3.53;;;3.22;;
8895;SDS011;4484;48.928;10.066;2022-07-23T12:33:15;3.80;;;3.40;;
8895;SDS011;4484;48.928;10.066;2022-07-23T12:35:50;4.60;;;3.10;;
8895;SDS011;4484;48.928;10.066;2022-07-23T12:38:19;3.85;;;3.38;;
8895;SDS011;4484;48.928;10.066;2022-07-23T12:40:50;5.53;;;3.13;;
8895;SDS011;4484;48.928;10.066;2022-07-23T12:43:33;3.97;;;3.53;;
8895;SDS011;4484;48.928;10.066;2022-07-23T12:46:10;3.80;;;3.60;;
8895;SDS011;4484;48.928;10.066;2022-07-23T12:48:38;3.80;;;3.50;;
8895;SDS011;4484;48.928;10.066;2022-07-23T12:51:28;4.18;;;3.22;;
8895;SDS011;4484;48.928;10.066;2022-07-23T12:53:58;3.70;;;3.40;;
8895;SDS011;4484;48.928;10.066;2022-07-23T12:56:32;3.97;;;3.58;;
8895;SDS011;4484;48.928;10.066;2022-07-23T13:01:33;3.50;;;3.20;;
8895;SDS011;4484;48.928;10.066;2022-07-23T13:06:42;3.58;;;3.28;;
8895;SDS011;4484;48.928;10.066;2022-07-23T13:09:21;4.00;;;3.33;;
8895;SDS011;4484;48.928;10.066;2022-07-23T13:11:51;3.65;;;3.35;;
8895;SDS011;4484;48.928;10.066;2022-07-23T13:14:22;3.42;;;3.17;;
8895;SDS011;4484;48.928;10.066;2022-07-23T13:16:52;3.75;;;3.45;;
8895;SDS011;4484;48.928;10.066;2022-07-23T13:19:22;3.65;;;3.33;;
8895;SDS011;4484;48.928;10.066;2022-07-23T13:21:54;4.25;;;3.20;;
8895;SDS011;4484;48.928;10.066;2022-07-23T13:24:22;5.05;;;3.75;;
8895;SDS011;4484;48.928;10.066;2022-07-23T13:26:49;4.57;;;3.42;;
8895;SDS011;4484;48.928;10.066;2022-07-23T13:29:17;3.78;;;3.47;;
8895;SDS011;4484;48.928;10.066;2022-07-23T13:31:45;3.33;;;3.05;;
8895;SDS011;4484;48.928;10.066;2022-07-23T13:34:14;5.07;;;3.72;;
8895;SDS011;4484;48.928;10.066;2022-07-23T13:36:41;3.90;;;3.33;;
8895;SDS011;4484;48.928;10.066;2022-07-23T13:39:09;3.88;;;3.50;;
8895;SDS011;4484;48.928;10.066;2022-07-23T13:41:37;4.88;;;3.45;;
8895;SDS011;4484;48.928;10.066;2022-07-23T13:44:05;4.43;;;4.03;;
8895;SDS011;4484;48.928;10.066;2022-07-23T13:46:33;3.80;;;3.50;;
8895;SDS011;4484;48.928;10.066;2022-07-23T13:49:02;5.88;;;3.65;;
8895;SDS011;4484;48.928;10.066;2022-07-23T13:51:32;4.15;;;3.75;;
8895;SDS011;4484;48.928;10.066;2022-07-23T13:53:58;5.07;;;3.55;;
8895;SDS011;4484;48.928;10.066;2022-07-23T13:56:25;3.95;;;3.65;;
8895;SDS011;4484;48.928;10.066;2022-07-23T13:58:52;3.88;;;3.58;;
8895;SDS011;4484;48.928;10.066;2022-07-23T14:01:19;4.03;;;3.55;;
8895;SDS011;4484;48.928;10.066;2022-07-23T14:03:46;5.05;;;4.15;;
8895;SDS011;4484;48.928;10.066;2022-07-23T14:06:13;4.65;;;3.47;;
8895;SDS011;4484;48.928;10.066;2022-07-23T14:08:42;4.63;;;3.42;;
8895;SDS011;4484;48.928;10.066;2022-07-23T14:11:11;3.63;;;3.35;;
8895;SDS011;4484;48.928;10.066;2022-07-23T14:13:38;5.18;;;3.60;;
8895;SDS011;4484;48.928;10.066;2022-07-23T14:16:06;4.25;;;3.50;;
8895;SDS011;4484;48.928;10.066;2022-07-23T14:18:33;4.10;;;3.70;;
8895;SDS011;4484;48.928;10.066;2022-07-23T14:21:01;4.00;;;3.70;;
8895;SDS011;4484;48.928;10.066;2022-07-23T14:23:29;3.80;;;3.42;;
8895;SDS011;4484;48.928;10.066;2022-07-23T14:25:56;3.75;;;3.45;;
8895;SDS011;4484;48.928;10.066;2022-07-23T14:28:23;3.65;;;3.35;;
8895;SDS011;4484;48.928;10.066;2022-07-23T14:30:50;4.10;;;3.70;;
8895;SDS011;4484;48.928;10.066;2022-07-23T14:33:17;3.90;;;3.60;;
8895;SDS011;4484;48.928;10.066;2022-07-23T14:35:46;4.15;;;3.75;;
8895;SDS011;4484;48.928;10.066;2022-07-23T14:38:13;4.00;;;3.70;;
8895;SDS011;4484;48.928;10.066;2022-07-23T14:40:41;4.82;;;3.70;;
8895;SDS011;4484;48.928;10.066;2022-07-23T14:43:08;4.25;;;3.85;;
8895;SDS011;4484;48.928;10.066;2022-07-23T14:45:37;4.00;;;3.70;;
8895;SDS011;4484;48.928;10.066;2022-07-23T14:48:04;4.30;;;3.90;;
8895;SDS011;4484;48.928;10.066;2022-07-23T14:50:33;4.18;;;3.88;;
8895;SDS011;4484;48.928;10.066;2022-07-23T14:53:00;3.60;;;3.30;;
8895;SDS011;4484;48.928;10.066;2022-07-23T14:55:30;3.85;;;3.53;;
8895;SDS011;4484;48.928;10.066;2022-07-23T14:57:58;5.57;;;3.72;;
8895;SDS011;4484;48.928;10.066;2022-07-23T15:00:26;4.80;;;3.80;;
8895;SDS011;4484;48.928;10.066;2022-07-23T15:02:53;5.00;;;3.60;;
8895;SDS011;4484;48.928;10.066;2022-07-23T15:05:21;5.28;;;4.05;;
8895;SDS011;4484;48.928;10.066;2022-07-23T15:07:50;5.82;;;4.28;;
8895;SDS011;4484;48.928;10.066;2022-07-23T15:10:18;4.25;;;3.85;;
8895;SDS011;4484;48.928;10.066;2022-07-23T15:12:47;5.35;;;4.40;;
8895;SDS011;4484;48.928;10.066;2022-07-23T15:15:15;5.10;;;4.05;;
8895;SDS011;4484;48.928;10.066;2022-07-23T15:17:43;5.15;;;4.20;;
8895;SDS011;4484;48.928;10.066;2022-07-23T15:20:12;5.32;;;4.53;;
8895;SDS011;4484;48.928;10.066;2022-07-23T15:22:43;5.03;;;4.45;;
8895;SDS011;4484;48.928;10.066;2022-07-23T15:25:11;6.03;;;4.20;;
8895;SDS011;4484;48.928;10.066;2022-07-23T15:27:38;4.53;;;4.13;;
8895;SDS011;4484;48.928;10.066;2022-07-23T15:30:06;4.50;;;4.10;;
8895;SDS011;4484;48.928;10.066;2022-07-23T15:32:33;4.82;;;4.00;;
8895;SDS011;4484;48.928;10.066;2022-07-23T15:35:00;4.68;;;4.28;;
8895;SDS011;4484;48.928;10.066;2022-07-23T15:37:33;7.80;;;4.30;;
8895;SDS011;4484;48.928;10.066;2022-07-23T15:40:01;5.85;;;4.22;;
8895;SDS011;4484;48.928;10.066;2022-07-23T15:42:31;4.63;;;4.10;;
8895;SDS011;4484;48.928;10.066;2022-07-23T15:44:58;4.53;;;4.10;;
8895;SDS011;4484;48.928;10.066;2022-07-23T15:47:25;4.60;;;4.20;;
8895;SDS011;4484;48.928;10.066;2022-07-23T15:49:52;4.10;;;3.78;;
8895;SDS011;4484;48.928;10.066;2022-07-23T15:52:21;4.20;;;3.80;;
8895;SDS011;4484;48.928;10.066;2022-07-23T15:54:48;4.07;;;3.67;;
8895;SDS011;4484;48.928;10.066;2022-07-23T15:57:15;4.10;;;3.70;;
8895;SDS011;4484;48.928;10.066;2022-07-23T15:59:45;5.03;;;3.78;;
8895;SDS011;4484;48.928;10.066;2022-07-23T16:02:12;5.53;;;4.00;;
8895;SDS011;4484;48.928;10.066;2022-07-23T16:04:39;3.95;;;3.50;;
8895;SDS011;4484;48.928;10.066;2022-07-23T16:07:06;5.18;;;3.80;;
8895;SDS011;4484;48.928;10.066;2022-07-23T16:09:40;10.63;;;3.90;;
8895;SDS011;4484;48.928;10.066;2022-07-23T16:12:08;5.35;;;4.13;;
8895;SDS011;4484;48.928;10.066;2022-07-23T16:14:37;6.85;;;4.47;;
8895;SDS011;4484;48.928;10.066;2022-07-23T16:17:05;4.45;;;4.05;;
8895;SDS011;4484;48.928;10.066;2022-07-23T16:19:32;4.63;;;3.90;;